Time;durP1;ratioP1;P1;durP2;ratioP2;P2;SDS_P1;SDS_P2;PMS_P1;PMS_P2;Temp;Humidity;BMP_temperature;BMP_pressure;BME280_temperature;BME280_humidity;BME280_pressure;Samples;Min_cycle;Max_cycle;Signal;HPM_P1;HPM_P2
2023/06/13 00:01:06;;;;;;;2.90;2.10;;;18.40;80.50;;;;;;5098545;28;20229;-63
2023/06/13 00:03:34;;;;;;;3.87;2.33;;;18.40;81.70;;;;;;5096010;28;20240;-63
2023/06/13 00:06:02;;;;;;;2.47;2.27;;;18.40;81.10;;;;;;5094870;28;20692;-63
2023/06/13 00:08:31;;;;;;;3.00;2.37;;;18.40;81.40;;;;;;5094848;28;20398;-63
2023/06/13 00:10:59;;;;;;;3.10;2.50;;;18.30;81.40;;;;;;5094967;28;20618;-63
2023/06/13 00:13:27;;;;;;;6.10;2.53;;;18.20;81.60;;;;;;5094210;28;20215;-63
2023/06/13 00:15:58;;;;;;;3.97;2.10;;;18.20;82.70;;;;;;5094756;28;20229;-63
2023/06/13 00:18:29;;;;;;;4.20;2.20;;;18.20;81.90;;;;;;5092768;28;20248;-63
2023/06/13 00:20:58;;;;;;;3.37;2.17;;;18.10;82.00;;;;;;5102761;28;20232;-62
2023/06/13 00:23:27;;;;;;;3.73;2.33;;;18.20;82.10;;;;;;5094547;28;20236;-63
2023/06/13 00:25:56;;;;;;;3.27;2.40;;;18.10;81.90;;;;;;5093645;28;20578;-63
2023/06/13 00:28:24;;;;;;;3.73;2.33;;;18.10;81.80;;;;;;5094542;28;20221;-63
2023/06/13 00:30:52;;;;;;;3.17;2.03;;;18.00;81.50;;;;;;5095991;28;20764;-63
2023/06/13 00:33:24;;;;;;;2.30;2.10;;;18.00;81.50;;;;;;5092822;28;20747;-63
2023/06/13 00:35:52;;;;;;;2.93;2.10;;;17.90;82.40;;;;;;5094607;28;20217;-63
2023/06/13 00:38:21;;;;;;;2.87;2.20;;;17.90;81.60;;;;;;5094445;28;20231;-63
2023/06/13 00:40:50;;;;;;;3.33;2.20;;;17.80;82.20;;;;;;5087440;28;20221;-63
2023/06/13 00:43:18;;;;;;;3.93;2.50;;;17.70;83.30;;;;;;5094260;28;20298;-63
2023/06/13 00:45:46;;;;;;;3.57;2.40;;;17.60;84.70;;;;;;5094192;28;20220;-63
2023/06/13 00:48:15;;;;;;;2.87;2.50;;;17.60;85.60;;;;;;5093039;28;20228;-63
2023/06/13 00:50:45;;;;;;;4.20;2.40;;;17.50;86.70;;;;;;5083856;28;20229;-64
2023/06/13 00:53:16;;;;;;;2.93;2.30;;;17.40;87.60;;;;;;5107608;28;20699;-63
2023/06/13 00:55:46;;;;;;;3.50;2.50;;;17.40;88.50;;;;;;5096059;28;20232;-63
2023/06/13 00:58:16;;;;;;;3.23;2.43;;;17.30;89.30;;;;;;5096092;28;20245;-63
2023/06/13 01:00:45;;;;;;;4.47;2.80;;;17.20;90.00;;;;;;5094156;28;20302;-63
2023/06/13 01:03:15;;;;;;;3.23;2.40;;;17.20;90.40;;;;;;5092015;28;20233;-63
2023/06/13 01:05:46;;;;;;;3.17;2.40;;;17.10;90.60;;;;;;5086013;28;20301;-63
2023/06/13 01:08:18;;;;;;;2.83;2.53;;;17.10;91.10;;;;;;5077660;28;20651;-63
2023/06/13 01:10:53;;;;;;;3.47;2.30;;;17.00;91.30;;;;;;5083872;28;20336;-63
2023/06/13 01:13:28;;;;;;;4.20;2.70;;;17.00;91.90;;;;;;5092581;28;20310;-63
2023/06/13 01:16:04;;;;;;;3.60;2.40;;;16.90;91.80;;;;;;5089979;28;20228;-63
2023/06/13 01:18:35;;;;;;;4.40;2.40;;;16.90;92.00;;;;;;5078976;28;20270;-64
2023/06/13 01:21:06;;;;;;;3.40;2.73;;;16.80;92.20;;;;;;5093403;28;20698;-63
2023/06/13 01:23:39;;;;;;;4.77;2.50;;;16.70;92.50;;;;;;5091334;28;20325;-63
2023/06/13 01:26:14;;;;;;;3.13;2.83;;;16.70;92.70;;;;;;5114025;28;20223;-63
2023/06/13 01:28:51;;;;;;;3.73;2.57;;;16.60;92.90;;;;;;5108358;28;20223;-63
2023/06/13 01:31:23;;;;;;;3.17;2.87;;;16.60;93.20;;;;;;5091451;28;20230;-63
2023/06/13 01:33:52;;;;;;;2.60;2.40;;;16.50;93.40;;;;;;5091490;28;20236;-63
2023/06/13 01:36:21;;;;;;;3.90;2.50;;;16.50;93.50;;;;;;5091446;28;20216;-62
2023/06/13 01:38:49;;;;;;;3.17;2.40;;;16.50;93.50;;;;;;5074982;28;20258;-63
2023/06/13 01:41:17;;;;;;;3.77;2.53;;;16.40;93.60;;;;;;5075142;28;20262;-63
2023/06/13 01:43:46;;;;;;;3.67;2.57;;;16.40;93.70;;;;;;5093025;28;20227;-63
2023/06/13 01:46:24;;;;;;;4.60;2.30;;;16.40;93.90;;;;;;5091141;28;20221;-63
2023/06/13 01:49:05;;;;;;;2.53;2.13;;;16.30;94.30;;;;;;5089436;28;20249;-63
2023/06/13 01:51:51;;;;;;;4.33;2.37;;;16.20;94.80;;;;;;5092897;28;20280;-61
2023/06/13 01:54:23;;;;;;;5.80;2.50;;;16.10;95.50;;;;;;5085601;28;20283;-62
2023/06/13 01:56:57;;;;;;;3.00;2.33;;;16.10;95.80;;;;;;5074611;28;20253;-63
2023/06/13 01:59:28;;;;;;;3.93;2.73;;;16.10;96.80;;;;;;5074735;28;20760;-62
2023/06/13 02:01:57;;;;;;;3.07;2.30;;;16.10;96.20;;;;;;5081052;28;20707;-63
2023/06/13 02:04:26;;;;;;;3.83;2.57;;;16.00;96.20;;;;;;5087050;28;20268;-62
2023/06/13 02:06:54;;;;;;;3.87;2.40;;;16.00;96.30;;;;;;5092840;28;20230;-63
2023/06/13 02:09:22;;;;;;;4.57;2.70;;;16.00;96.60;;;;;;5092923;28;20408;-62
2023/06/13 02:11:50;;;;;;;3.73;2.47;;;15.90;96.60;;;;;;5074744;28;20222;-63
2023/06/13 02:14:18;;;;;;;3.90;2.83;;;15.80;97.30;;;;;;5092843;28;20679;-63
2023/06/13 02:16:48;;;;;;;2.87;2.50;;;15.70;97.80;;;;;;5062227;28;20268;-63
2023/06/13 02:19:16;;;;;;;3.40;2.27;;;15.70;98.40;;;;;;5086507;28;20321;-63
2023/06/13 02:21:46;;;;;;;3.00;2.60;;;15.70;98.70;;;;;;5093064;28;20678;-63
2023/06/13 02:24:15;;;;;;;3.40;2.47;;;15.60;99.00;;;;;;5113055;28;20240;-63
2023/06/13 02:26:44;;;;;;;3.13;2.33;;;15.60;99.20;;;;;;5112874;28;20729;-63
2023/06/13 02:29:12;;;;;;;2.77;2.37;;;15.60;99.60;;;;;;5105116;28;20225;-63
2023/06/13 02:31:41;;;;;;;2.97;2.67;;;15.50;99.50;;;;;;5073874;28;20238;-63
2023/06/13 02:34:11;;;;;;;2.40;2.20;;;15.50;99.70;;;;;;5088331;28;20219;-62
2023/06/13 02:36:39;;;;;;;3.27;2.30;;;15.50;99.90;;;;;;5092328;28;20219;-63
2023/06/13 02:39:09;;;;;;;4.73;2.20;;;15.50;99.90;;;;;;5092630;28;20720;-63
2023/06/13 02:41:37;;;;;;;3.37;2.30;;;15.40;99.90;;;;;;5092010;28;20247;-63
2023/06/13 02:44:05;;;;;;;3.03;2.30;;;15.40;99.90;;;;;;5092499;28;20218;-63
2023/06/13 02:46:34;;;;;;;4.63;2.33;;;15.40;99.90;;;;;;5098589;28;20719;-63
2023/06/13 02:49:03;;;;;;;3.23;2.50;;;15.50;99.90;;;;;;5101719;28;20285;-63
2023/06/13 02:51:32;;;;;;;5.13;1.80;;;15.40;99.90;;;;;;5102818;28;20214;-63
2023/06/13 02:54:00;;;;;;;4.37;2.00;;;15.30;99.90;;;;;;5112432;28;20265;-62
2023/06/13 02:56:29;;;;;;;2.50;1.90;;;15.30;99.90;;;;;;5112590;28;20217;-63
2023/06/13 02:58:57;;;;;;;6.47;2.27;;;15.20;99.90;;;;;;5096939;28;20222;-63
2023/06/13 03:01:26;;;;;;;2.67;1.90;;;15.20;99.90;;;;;;5097945;28;20267;-62
2023/06/13 03:03:56;;;;;;;1.80;1.70;;;15.20;99.90;;;;;;5075793;28;20245;-63
2023/06/13 03:06:26;;;;;;;2.50;1.90;;;15.20;99.90;;;;;;5077959;28;20219;-62
2023/06/13 03:08:58;;;;;;;3.00;1.97;;;15.20;99.90;;;;;;5078001;28;20271;-63
2023/06/13 03:11:28;;;;;;;3.07;2.03;;;15.20;99.90;;;;;;5077837;28;20598;-63
2023/06/13 03:13:57;;;;;;;3.50;2.00;;;15.20;99.90;;;;;;5076789;28;20309;-62
2023/06/13 03:16:27;;;;;;;4.77;2.03;;;15.10;99.90;;;;;;5101786;28;20214;-62
2023/06/13 03:18:57;;;;;;;3.23;1.80;;;15.10;99.90;;;;;;5086798;28;20240;-63
2023/06/13 03:21:25;;;;;;;2.97;1.90;;;15.10;99.90;;;;;;5097962;28;20279;-62
2023/06/13 03:23:55;;;;;;;3.63;2.00;;;15.10;99.90;;;;;;5071496;28;20240;-63
2023/06/13 03:26:25;;;;;;;3.10;1.80;;;15.00;99.90;;;;;;5057674;28;20257;-63
2023/06/13 03:28:53;;;;;;;3.50;1.97;;;15.00;99.90;;;;;;5057683;28;20252;-63
2023/06/13 03:31:21;;;;;;;4.50;1.80;;;15.10;99.90;;;;;;5057029;28;20568;-63
2023/06/13 03:33:50;;;;;;;2.40;1.80;;;15.10;99.90;;;;;;5058600;28;20224;-63
2023/06/13 03:36:19;;;;;;;3.90;2.50;;;15.10;99.90;;;;;;5071565;28;20273;-63
2023/06/13 03:38:47;;;;;;;2.37;2.17;;;15.20;99.90;;;;;;5095397;28;20306;-63
2023/06/13 03:41:17;;;;;;;3.10;2.40;;;15.10;99.90;;;;;;5076848;28;20309;-63
2023/06/13 03:43:45;;;;;;;3.03;2.13;;;15.10;99.90;;;;;;5101152;28;20222;-62
2023/06/13 03:46:13;;;;;;;2.23;2.03;;;15.20;99.90;;;;;;5076963;28;20229;-62
2023/06/13 03:48:43;;;;;;;2.67;2.00;;;15.20;99.90;;;;;;5100465;28;20426;-63
2023/06/13 03:51:11;;;;;;;4.17;2.40;;;15.20;99.90;;;;;;5097569;28;20279;-63
2023/06/13 03:53:39;;;;;;;4.20;2.10;;;15.30;99.90;;;;;;5097274;28;20222;-63
2023/06/13 03:56:07;;;;;;;2.50;2.10;;;15.30;99.90;;;;;;5087532;28;20612;-63
2023/06/13 03:58:37;;;;;;;4.77;2.40;;;15.30;99.90;;;;;;5083089;28;20257;-63
2023/06/13 04:01:06;;;;;;;4.07;2.20;;;15.40;99.90;;;;;;5094787;28;20792;-63
2023/06/13 04:03:36;;;;;;;3.37;2.30;;;15.50;99.90;;;;;;5084762;28;20585;-63
2023/06/13 04:06:04;;;;;;;3.53;2.20;;;15.50;99.90;;;;;;5067691;28;20328;-63
2023/06/13 04:08:35;;;;;;;3.80;2.30;;;15.50;99.90;;;;;;5076487;28;20697;-63
2023/06/13 04:11:05;;;;;;;6.20;2.40;;;15.60;99.90;;;;;;5076705;28;20593;-62
2023/06/13 04:13:34;;;;;;;3.67;2.53;;;15.70;99.90;;;;;;5062683;28;20690;-63
2023/06/13 04:16:03;;;;;;;4.57;2.67;;;15.80;99.90;;;;;;5078218;28;20306;-63
2023/06/13 04:18:33;;;;;;;4.67;2.20;;;15.80;99.90;;;;;;5072211;28;20239;-63
2023/06/13 04:21:01;;;;;;;3.30;2.37;;;15.80;99.90;;;;;;5074605;28;20224;-63
2023/06/13 04:23:29;;;;;;;3.23;2.50;;;15.90;99.90;;;;;;5073199;28;20748;-63
2023/06/13 04:26:00;;;;;;;5.77;2.23;;;15.90;99.90;;;;;;5073238;28;20372;-63
2023/06/13 04:28:29;;;;;;;4.67;2.20;;;15.90;99.90;;;;;;5073575;28;20215;-62
2023/06/13 04:30:57;;;;;;;2.50;2.30;;;16.10;99.90;;;;;;5066581;28;20614;-63
2023/06/13 04:33:27;;;;;;;5.73;2.50;;;16.30;99.90;;;;;;5068268;28;20630;-62
2023/06/13 04:36:03;;;;;;;4.13;2.87;;;16.40;99.90;;;;;;5060164;28;20242;-63
2023/06/13 04:38:34;;;;;;;4.43;2.57;;;16.30;99.90;;;;;;5073319;28;20705;-63
2023/06/13 04:41:02;;;;;;;5.30;2.80;;;16.30;99.90;;;;;;5072757;28;20246;-63
2023/06/13 04:43:33;;;;;;;4.60;2.40;;;16.40;99.90;;;;;;5073202;28;20222;-62
2023/06/13 04:46:03;;;;;;;5.07;2.63;;;16.50;99.90;;;;;;5057962;28;20250;-63
2023/06/13 04:48:37;;;;;;;4.90;2.90;;;16.60;99.90;;;;;;5069979;28;20302;-63
2023/06/13 04:51:09;;;;;;;5.20;2.80;;;16.60;99.90;;;;;;5053993;28;20226;-63
2023/06/13 04:53:38;;;;;;;5.80;3.23;;;16.70;99.90;;;;;;5053924;28;20645;-63
2023/06/13 04:56:06;;;;;;;8.47;2.90;;;16.80;99.90;;;;;;5056049;28;20224;-63
2023/06/13 04:58:35;;;;;;;6.50;3.30;;;16.60;99.90;;;;;;5064186;28;20598;-62
2023/06/13 05:01:03;;;;;;;4.80;2.60;;;16.80;99.90;;;;;;5065143;28;20231;-62
2023/06/13 05:03:31;;;;;;;5.57;3.27;;;16.70;99.90;;;;;;5064113;28;20238;-63
2023/06/13 05:06:01;;;;;;;5.53;2.87;;;16.90;99.90;;;;;;5064778;28;20230;-63
2023/06/13 05:08:30;;;;;;;7.10;2.90;;;17.10;99.90;;;;;;5067842;28;20290;-63
2023/06/13 05:10:58;;;;;;;4.00;2.77;;;17.30;99.90;;;;;;5064668;28;20226;-63
2023/06/13 05:13:27;;;;;;;4.70;2.80;;;17.40;99.90;;;;;;5060984;28;20741;-59
2023/06/13 05:15:55;;;;;;;5.53;2.90;;;17.50;99.90;;;;;;5058862;28;20225;-60
2023/06/13 05:18:24;;;;;;;12.40;2.70;;;17.60;99.90;;;;;;5065178;28;20239;-57
2023/06/13 05:20:52;;;;;;;4.57;2.60;;;17.70;99.90;;;;;;5076907;28;20234;-62
2023/06/13 05:23:22;;;;;;;5.53;3.17;;;17.80;99.90;;;;;;5080985;28;21139;-63
2023/06/13 05:25:50;;;;;;;5.03;2.60;;;18.00;99.90;;;;;;5081469;28;20242;-61
2023/06/13 05:28:18;;;;;;;5.60;3.00;;;18.20;99.90;;;;;;5081264;28;20232;-62
2023/06/13 05:30:48;;;;;;;5.77;2.90;;;18.10;99.90;;;;;;5079195;28;20729;-59
2023/06/13 05:33:16;;;;;;;4.00;2.50;;;18.10;99.90;;;;;;5080675;28;20622;-64
2023/06/13 05:35:44;;;;;;;5.13;2.53;;;18.20;99.90;;;;;;5080175;28;20234;-63
2023/06/13 05:38:26;;;;;;;3.70;2.60;;;18.40;99.90;;;;;;5082140;28;20632;-53
2023/06/13 05:40:54;;;;;;;4.33;2.70;;;18.50;99.90;;;;;;5081238;28;20231;-55
2023/06/13 05:43:22;;;;;;;6.80;3.03;;;18.50;99.90;;;;;;5082458;28;20310;-54
2023/06/13 05:45:51;;;;;;;5.43;2.60;;;18.70;99.90;;;;;;5082878;28;20339;-54
2023/06/13 05:48:19;;;;;;;4.23;2.50;;;18.80;99.90;;;;;;5084839;28;20230;-56
2023/06/13 05:50:47;;;;;;;3.17;2.40;;;19.00;99.90;;;;;;5082373;28;20369;-56
2023/06/13 05:53:15;;;;;;;6.33;2.27;;;18.80;99.90;;;;;;5087881;28;20317;-54
2023/06/13 05:55:45;;;;;;;4.73;2.30;;;19.00;99.90;;;;;;5086139;28;20269;-53
2023/06/13 05:58:13;;;;;;;6.10;2.70;;;19.10;99.90;;;;;;5087396;28;20221;-54
2023/06/13 06:00:41;;;;;;;4.83;2.67;;;19.30;99.90;;;;;;5083862;28;20241;-55
2023/06/13 06:03:09;;;;;;;5.33;3.23;;;19.30;99.90;;;;;;5083269;28;20236;-54
2023/06/13 06:05:37;;;;;;;4.37;2.97;;;19.30;99.90;;;;;;5082614;28;20707;-55
2023/06/13 06:08:06;;;;;;;18.57;3.27;;;19.30;99.90;;;;;;5082874;28;20228;-58
2023/06/13 06:10:34;;;;;;;3.43;2.50;;;19.30;99.90;;;;;;5083125;28;20592;-57
2023/06/13 06:13:03;;;;;;;5.73;2.83;;;19.40;99.90;;;;;;5083646;28;20238;-56
2023/06/13 06:15:32;;;;;;;4.00;2.50;;;19.40;99.90;;;;;;5083631;28;20230;-56
2023/06/13 06:18:00;;;;;;;4.00;2.70;;;19.60;99.90;;;;;;5083760;28;20233;-56
2023/06/13 06:20:28;;;;;;;4.47;2.40;;;19.40;99.90;;;;;;5081699;28;20224;-57
2023/06/13 06:22:57;;;;;;;4.73;2.70;;;19.50;99.90;;;;;;5084195;28;20628;-56
2023/06/13 06:25:25;;;;;;;3.77;2.87;;;19.80;99.90;;;;;;5084166;28;20228;-55
2023/06/13 06:27:54;;;;;;;5.07;2.90;;;19.80;99.90;;;;;;5085772;28;20245;-57
2023/06/13 06:30:24;;;;;;;6.00;2.50;;;19.90;99.90;;;;;;5081267;28;20636;-55
2023/06/13 06:32:54;;;;;;;3.73;2.47;;;20.00;99.90;;;;;;5085543;28;20758;-55
2023/06/13 06:35:22;;;;;;;4.17;2.43;;;20.20;99.90;;;;;;5090352;28;20338;-57
2023/06/13 06:37:50;;;;;;;4.03;2.07;;;20.50;99.90;;;;;;5089660;28;20233;-57
2023/06/13 06:40:19;;;;;;;3.77;2.47;;;20.60;99.90;;;;;;5087860;28;20308;-55
2023/06/13 06:42:47;;;;;;;5.70;2.40;;;20.70;99.90;;;;;;5088308;28;20619;-56
2023/06/13 06:45:21;;;;;;;6.00;2.70;;;20.70;99.90;;;;;;5068291;28;20729;-56
2023/06/13 06:47:50;;;;;;;6.90;2.23;;;20.90;99.90;;;;;;5087508;28;20661;-57
2023/06/13 06:50:19;;;;;;;6.63;2.73;;;21.30;99.90;;;;;;5087670;28;20591;-55
2023/06/13 06:52:48;;;;;;;4.47;2.40;;;21.20;99.90;;;;;;5084417;28;20223;-55
2023/06/13 06:55:16;;;;;;;4.23;2.20;;;21.10;99.90;;;;;;5086294;28;20232;-56
2023/06/13 06:57:44;;;;;;;5.53;2.60;;;21.30;99.90;;;;;;5084934;28;20242;-56
2023/06/13 07:00:14;;;;;;;4.70;2.17;;;21.20;99.90;;;;;;5087112;28;20223;-56
2023/06/13 07:02:44;;;;;;;5.23;2.40;;;21.40;99.90;;;;;;5084804;28;20220;-56
2023/06/13 07:05:15;;;;;;;5.30;2.20;;;21.50;99.90;;;;;;5088032;28;20242;-56
2023/06/13 07:07:44;;;;;;;9.63;2.77;;;22.00;99.90;;;;;;5088530;28;20221;-56
2023/06/13 07:10:12;;;;;;;3.73;2.40;;;22.20;99.90;;;;;;5089827;28;20534;-57
2023/06/13 07:12:42;;;;;;;6.63;2.23;;;22.40;99.90;;;;;;5092276;28;20589;-56
2023/06/13 07:15:10;;;;;;;6.33;2.30;;;22.60;99.90;;;;;;5091209;28;20221;-56
2023/06/13 07:17:38;;;;;;;7.27;2.50;;;22.60;99.90;;;;;;5088680;28;20566;-58
2023/06/13 07:20:08;;;;;;;3.30;1.83;;;22.50;99.90;;;;;;5084873;28;20242;-57
2023/06/13 07:22:38;;;;;;;2.37;2.10;;;22.90;99.90;;;;;;5084048;28;20279;-57
2023/06/13 07:25:06;;;;;;;3.27;2.00;;;23.00;99.90;;;;;;5088251;28;20231;-56
2023/06/13 07:27:35;;;;;;;2.97;1.83;;;22.90;99.90;;;;;;5085924;28;20307;-57
2023/06/13 07:30:03;;;;;;;6.57;1.97;;;23.10;99.90;;;;;;5085859;28;20309;-56
2023/06/13 07:32:31;;;;;;;5.87;2.10;;;23.20;99.90;;;;;;5083265;28;20351;-57
2023/06/13 07:35:00;;;;;;;4.60;2.20;;;23.60;99.90;;;;;;5086527;28;20266;-57
2023/06/13 07:37:34;;;;;;;4.47;2.03;;;23.60;99.90;;;;;;5087567;28;20212;-57
2023/06/13 07:40:07;;;;;;;4.40;2.33;;;23.90;99.90;;;;;;5088667;28;20218;-57
2023/06/13 07:42:35;;;;;;;4.20;1.83;;;23.90;99.90;;;;;;5085474;28;20243;-57
2023/06/13 07:45:05;;;;;;;3.10;2.13;;;23.80;99.90;;;;;;5076712;28;20716;-56
2023/06/13 07:47:33;;;;;;;3.37;1.70;;;24.00;99.90;;;;;;5090277;28;20218;-57
2023/06/13 07:50:01;;;;;;;6.20;2.00;;;24.10;99.90;;;;;;5088499;28;20590;-56
2023/06/13 07:52:29;;;;;;;3.33;1.97;;;23.80;99.90;;;;;;5086761;28;20222;-57
2023/06/13 07:54:57;;;;;;;4.43;1.77;;;24.10;99.90;;;;;;5089710;28;20222;-56
2023/06/13 07:57:27;;;;;;;6.33;2.10;;;24.40;99.90;;;;;;5087896;28;20748;-56
2023/06/13 07:59:58;;;;;;;2.33;1.60;;;24.30;99.90;;;;;;5089297;28;20741;-57
2023/06/13 08:02:26;;;;;;;5.80;1.80;;;24.30;97.70;;;;;;5085206;28;20232;-57
2023/06/13 08:04:54;;;;;;;6.03;1.70;;;24.20;96.80;;;;;;5076142;28;20266;-56
2023/06/13 08:07:23;;;;;;;3.10;1.87;;;24.20;97.00;;;;;;5088882;28;20311;-58
2023/06/13 08:09:51;;;;;;;4.27;1.93;;;24.40;96.40;;;;;;5089432;28;20576;-57
2023/06/13 08:12:20;;;;;;;4.53;1.80;;;24.80;96.20;;;;;;5086049;28;20227;-57
2023/06/13 08:14:49;;;;;;;4.67;1.57;;;25.00;95.40;;;;;;5087833;28;20697;-57
2023/06/13 08:17:17;;;;;;;4.03;1.83;;;25.10;95.10;;;;;;5086949;28;20223;-56
2023/06/13 08:19:48;;;;;;;2.47;1.90;;;25.20;94.10;;;;;;5087817;28;20242;-57
2023/06/13 08:22:17;;;;;;;4.07;2.13;;;25.40;93.10;;;;;;5082350;28;20771;-56
2023/06/13 08:24:45;;;;;;;3.60;2.00;;;25.00;91.60;;;;;;5064362;28;20855;-57
2023/06/13 08:27:16;;;;;;;4.23;1.87;;;24.40;92.90;;;;;;5083772;28;20228;-56
2023/06/13 08:29:44;;;;;;;2.97;1.80;;;24.80;93.20;;;;;;5087755;28;20231;-57
2023/06/13 08:32:13;;;;;;;3.67;1.97;;;25.10;91.70;;;;;;5086397;28;20607;-57
2023/06/13 08:34:41;;;;;;;3.50;1.90;;;25.40;91.90;;;;;;5067738;28;20651;-57
2023/06/13 08:37:09;;;;;;;2.40;1.80;;;25.60;91.00;;;;;;5083832;28;20220;-57
2023/06/13 08:39:37;;;;;;;2.73;1.97;;;25.90;90.60;;;;;;5086372;28;20223;-57
2023/06/13 08:42:11;;;;;;;6.17;2.33;;;25.90;91.50;;;;;;5082127;28;20228;-57
2023/06/13 08:44:40;;;;;;;4.03;1.77;;;26.10;90.30;;;;;;5083391;28;20292;-57
2023/06/13 08:47:12;;;;;;;3.60;1.80;;;26.50;90.70;;;;;;5071351;28;20253;-57
2023/06/13 08:50:01;;;;;;;4.53;1.97;;;26.50;90.40;;;;;;5085874;28;20235;-57
2023/06/13 08:52:34;;;;;;;4.67;2.20;;;26.90;90.10;;;;;;5084781;28;20305;-57
2023/06/13 08:55:06;;;;;;;4.90;1.87;;;26.80;90.40;;;;;;5086450;28;20227;-57
2023/06/13 08:57:55;;;;;;;5.77;2.33;;;27.30;90.50;;;;;;5087154;28;20724;-57
2023/06/13 09:00:23;;;;;;;2.53;1.80;;;27.30;89.00;;;;;;5082373;28;20237;-57
2023/06/13 09:02:53;;;;;;;3.20;1.90;;;27.50;89.00;;;;;;5085313;28;20394;-57
2023/06/13 09:05:22;;;;;;;2.27;1.70;;;27.50;90.00;;;;;;5083390;28;20698;-56
2023/06/13 09:07:51;;;;;;;4.20;2.10;;;27.60;89.00;;;;;;5086686;28;20325;-57
2023/06/13 09:10:27;;;;;;;4.73;2.00;;;27.80;88.70;;;;;;5085049;28;20226;-57
2023/06/13 09:12:55;;;;;;;5.07;2.07;;;28.10;85.90;;;;;;5086201;28;20240;-56
2023/06/13 09:15:24;;;;;;;6.87;2.07;;;27.70;87.50;;;;;;5088865;28;20226;-56
2023/06/13 09:17:56;;;;;;;2.90;2.00;;;27.80;88.20;;;;;;5087911;28;20240;-57
2023/06/13 09:20:28;;;;;;;2.97;2.00;;;28.30;86.90;;;;;;5065088;28;20613;-57
2023/06/13 09:22:57;;;;;;;6.23;1.80;;;28.30;87.60;;;;;;5083490;28;20238;-56
2023/06/13 09:25:27;;;;;;;3.23;2.30;;;28.40;86.60;;;;;;5083185;28;20232;-55
2023/06/13 09:27:56;;;;;;;3.63;2.00;;;28.90;84.00;;;;;;5083245;28;20272;-57
2023/06/13 09:30:25;;;;;;;4.80;1.97;;;29.10;84.20;;;;;;5082475;28;20238;-56
2023/06/13 09:32:53;;;;;;;2.90;2.10;;;28.50;80.30;;;;;;5083627;28;20310;-57
2023/06/13 09:35:21;;;;;;;4.00;2.10;;;28.60;77.60;;;;;;5081889;28;20268;-57
2023/06/13 09:38:05;;;;;;;6.47;2.10;;;28.20;80.70;;;;;;5081760;28;20272;-57
2023/06/13 09:40:33;;;;;;;5.23;2.03;;;28.60;82.80;;;;;;5080659;28;20230;-56
2023/06/13 09:43:02;;;;;;;5.37;2.10;;;28.90;84.00;;;;;;5082194;28;20230;-57
2023/06/13 09:45:33;;;;;;;4.83;2.10;;;29.20;80.30;;;;;;5083081;28;20715;-57
2023/06/13 09:48:01;;;;;;;5.50;2.33;;;28.70;79.40;;;;;;5086326;28;20317;-57
2023/06/13 09:50:30;;;;;;;3.97;2.10;;;28.50;81.60;;;;;;5085724;28;20225;-57
2023/06/13 09:52:59;;;;;;;3.80;2.40;;;28.40;77.60;;;;;;5085547;28;20275;-56
2023/06/13 09:55:29;;;;;;;4.17;1.80;;;28.10;74.90;;;;;;5066894;28;20230;-57
2023/06/13 09:57:57;;;;;;;4.23;2.00;;;28.10;73.10;;;;;;5083352;28;20230;-57
2023/06/13 10:00:48;;;;;;;4.33;2.00;;;28.10;70.10;;;;;;5080019;28;20234;-56
2023/06/13 10:03:18;;;;;;;3.53;1.93;;;28.20;68.80;;;;;;5082776;28;20228;-57
2023/06/13 10:05:49;;;;;;;4.13;2.17;;;28.60;70.80;;;;;;5088987;28;20237;-57
2023/06/13 10:08:17;;;;;;;3.57;2.17;;;28.50;70.10;;;;;;5083326;28;20728;-57
2023/06/13 10:10:46;;;;;;;4.23;2.17;;;28.30;70.90;;;;;;5084822;28;20353;-57
2023/06/13 10:13:20;;;;;;;5.17;1.90;;;28.30;71.70;;;;;;5086309;28;20246;-57
2023/06/13 10:15:52;;;;;;;2.30;1.90;;;28.80;73.40;;;;;;5086331;28;20305;-58
2023/06/13 10:18:21;;;;;;;3.13;1.90;;;29.30;73.40;;;;;;5083475;28;20228;-57
2023/06/13 10:20:50;;;;;;;5.87;1.73;;;29.10;73.70;;;;;;5081511;28;20231;-57
2023/06/13 10:23:21;;;;;;;3.47;1.70;;;29.00;72.90;;;;;;5082951;28;20224;-57
2023/06/13 10:25:53;;;;;;;6.43;2.13;;;28.80;73.80;;;;;;5082863;28;20288;-57
2023/06/13 10:28:33;;;;;;;4.13;2.27;;;28.90;71.50;;;;;;5081864;28;20220;-57
2023/06/13 10:31:13;;;;;;;3.57;1.90;;;28.80;72.60;;;;;;5078550;28;20238;-58
2023/06/13 10:34:10;;;;;;;4.90;1.93;;;28.60;70.70;;;;;;5079777;28;20254;-57
2023/06/13 10:37:05;;;;;;;4.67;1.83;;;28.50;70.30;;;;;;5080379;28;20236;-58
2023/06/13 10:39:53;;;;;;;4.93;1.80;;;28.60;70.70;;;;;;5059428;28;20245;-58
2023/06/13 10:42:31;;;;;;;4.57;2.30;;;29.00;70.20;;;;;;5079169;28;20226;-58
2023/06/13 10:45:02;;;;;;;5.33;2.40;;;29.10;71.20;;;;;;5080653;28;20230;-57
2023/06/13 10:47:31;;;;;;;3.80;1.73;;;29.40;70.70;;;;;;5082749;28;20311;-57
2023/06/13 10:50:02;;;;;;;2.67;2.00;;;29.80;71.30;;;;;;5082006;28;20770;-57
2023/06/13 10:52:31;;;;;;;5.10;2.00;;;30.00;70.60;;;;;;5081841;28;20250;-57
2023/06/13 10:55:01;;;;;;;5.60;2.47;;;30.10;69.30;;;;;;5082684;28;20228;-57
2023/06/13 10:57:49;;;;;;;4.80;2.17;;;29.80;68.80;;;;;;5083270;28;20697;-57
2023/06/13 11:00:25;;;;;;;5.57;2.17;;;29.90;69.30;;;;;;5082326;28;20226;-58
2023/06/13 11:02:59;;;;;;;3.03;2.13;;;29.60;67.70;;;;;;5080527;28;20233;-56
2023/06/13 11:05:27;;;;;;;4.87;1.90;;;29.60;66.60;;;;;;5080758;28;21350;-58
2023/06/13 11:08:13;;;;;;;4.40;2.07;;;29.10;68.80;;;;;;5061865;28;20230;-57
2023/06/13 11:10:43;;;;;;;3.80;1.93;;;29.90;69.40;;;;;;5079876;28;20309;-57
2023/06/13 11:13:20;;;;;;;5.50;2.20;;;30.40;68.70;;;;;;5079919;28;20229;-57
2023/06/13 11:15:50;;;;;;;4.37;2.10;;;30.70;67.90;;;;;;5081861;28;20233;-58
2023/06/13 11:18:39;;;;;;;3.77;2.20;;;30.30;65.70;;;;;;5083886;28;20269;-58
2023/06/13 11:21:08;;;;;;;4.23;2.00;;;30.30;65.50;;;;;;5082269;28;20226;-57
2023/06/13 11:23:50;;;;;;;2.60;2.17;;;30.40;66.90;;;;;;5087196;28;20236;-57
2023/06/13 11:26:22;;;;;;;5.20;2.20;;;30.60;66.50;;;;;;5085937;28;20621;-57
2023/06/13 11:28:53;;;;;;;6.20;2.50;;;30.40;64.10;;;;;;5083810;28;20230;-57
2023/06/13 11:31:22;;;;;;;4.20;2.20;;;30.40;65.50;;;;;;5084731;28;20238;-58
2023/06/13 11:33:52;;;;;;;3.27;2.43;;;30.30;66.30;;;;;;5082351;28;20226;-56
2023/06/13 11:36:20;;;;;;;5.40;2.30;;;29.80;67.40;;;;;;5086000;28;20781;-57
2023/06/13 11:38:59;;;;;;;3.20;2.37;;;29.60;68.60;;;;;;5083770;28;20214;-57
2023/06/13 11:41:28;;;;;;;3.60;2.30;;;29.50;68.00;;;;;;5086848;28;20235;-58
2023/06/13 11:43:58;;;;;;;4.33;2.37;;;29.70;70.00;;;;;;5085113;28;20224;-57
2023/06/13 11:46:27;;;;;;;3.63;2.40;;;29.90;67.50;;;;;;5086664;28;20314;-57
2023/06/13 11:48:55;;;;;;;5.50;2.60;;;30.00;67.80;;;;;;5087446;28;20237;-57
2023/06/13 11:51:27;;;;;;;4.13;2.37;;;29.80;67.20;;;;;;5083333;28;20219;-57
2023/06/13 11:53:57;;;;;;;2.43;2.23;;;29.70;67.50;;;;;;5085136;28;20226;-58
2023/06/13 11:56:26;;;;;;;7.43;2.30;;;29.50;66.50;;;;;;5085185;28;20215;-55
2023/06/13 11:58:55;;;;;;;7.87;2.30;;;29.50;66.50;;;;;;5086075;28;20227;-56
2023/06/13 12:01:26;;;;;;;3.67;2.37;;;29.70;67.70;;;;;;5082049;28;20594;-57
2023/06/13 12:03:58;;;;;;;9.90;2.53;;;29.40;67.20;;;;;;5085999;28;20254;-57
2023/06/13 12:06:27;;;;;;;7.27;2.70;;;29.10;69.40;;;;;;5084044;28;20329;-58
2023/06/13 12:08:56;;;;;;;8.07;2.60;;;28.90;69.30;;;;;;5084047;28;20232;-57
2023/06/13 12:11:29;;;;;;;5.07;2.50;;;28.80;70.80;;;;;;5081376;28;20222;-57
2023/06/13 12:13:59;;;;;;;4.90;2.60;;;28.70;71.70;;;;;;5089316;28;20687;-57
2023/06/13 12:16:31;;;;;;;5.30;2.80;;;28.70;71.60;;;;;;5087731;28;20808;-57
2023/06/13 12:19:00;;;;;;;4.37;2.57;;;28.60;73.00;;;;;;5089144;28;20760;-57
2023/06/13 12:21:30;;;;;;;5.83;3.10;;;28.20;73.80;;;;;;5089170;28;20587;-57
2023/06/13 12:24:00;;;;;;;5.33;2.80;;;28.20;75.00;;;;;;5090059;28;20230;-58
2023/06/13 12:26:31;;;;;;;5.80;2.80;;;28.30;76.10;;;;;;5087727;28;20231;-57
2023/06/13 12:29:01;;;;;;;4.93;2.43;;;28.20;75.30;;;;;;5087527;28;20246;-57
2023/06/13 12:31:34;;;;;;;5.53;2.80;;;28.10;75.80;;;;;;5087602;28;21142;-57
2023/06/13 12:34:09;;;;;;;4.83;2.70;;;28.10;77.10;;;;;;5090492;28;20230;-57
2023/06/13 12:36:42;;;;;;;5.00;2.80;;;28.30;76.80;;;;;;5088426;28;20719;-56
2023/06/13 12:39:14;;;;;;;4.27;3.00;;;28.30;76.30;;;;;;5079620;28;20223;-57
2023/06/13 12:41:47;;;;;;;3.90;2.87;;;28.00;75.60;;;;;;5077672;28;20752;-56
2023/06/13 12:44:16;;;;;;;4.77;2.90;;;27.70;76.00;;;;;;5080935;28;20314;-57
2023/06/13 12:46:46;;;;;;;4.80;2.80;;;27.70;76.60;;;;;;5080127;28;20590;-57
2023/06/13 12:49:15;;;;;;;4.07;2.90;;;27.70;78.00;;;;;;5083530;28;20230;-57
2023/06/13 12:51:45;;;;;;;5.43;3.20;;;27.80;79.50;;;;;;5086102;28;20886;-57
2023/06/13 12:54:15;;;;;;;3.90;2.73;;;27.80;80.50;;;;;;5088143;28;20305;-57
2023/06/13 12:56:51;;;;;;;3.90;2.53;;;27.40;79.80;;;;;;5087970;28;20296;-57
2023/06/13 12:59:28;;;;;;;8.17;3.03;;;27.50;81.90;;;;;;5087382;28;20222;-57
2023/06/13 13:01:57;;;;;;;3.77;2.70;;;27.70;80.90;;;;;;5083909;28;20241;-57
2023/06/13 13:04:34;;;;;;;4.80;3.10;;;27.60;80.60;;;;;;5087841;28;20231;-57